sensor_id;sensor_type;location;lat;lon;timestamp;pressure;altitude;pressure_sealevel;temperature;humidity
41945;BME280;63122;52.424;13.458;2023-04-08T00:01:58;101421.53;;;6.29;100.00
41945;BME280;63122;52.424;13.458;2023-04-08T00:04:57;101417.25;;;6.28;100.00
41945;BME280;63122;52.424;13.458;2023-04-08T00:07:45;101413.97;;;6.25;100.00
41945;BME280;63122;52.424;13.458;2023-04-08T00:09:40;101418.28;;;6.26;100.00
41945;BME280;63122;52.424;13.458;2023-04-08T00:11:37;101432.41;;;6.23;100.00
41945;BME280;63122;52.424;13.458;2023-04-08T00:13:35;101425.28;;;6.25;100.00
41945;BME280;63122;52.424;13.458;2023-04-08T00:15:31;101420.03;;;6.25;100.00
41945;BME280;63122;52.424;13.458;2023-04-08T00:17:26;101420.03;;;6.25;100.00
41945;BME280;63122;52.424;13.458;2023-04-08T00:19:22;101420.16;;;6.24;100.00
41945;BME280;63122;52.424;13.458;2023-04-08T00:21:18;101422.66;;;6.25;100.00
41945;BME280;63122;52.424;13.458;2023-04-08T00:23:14;101425.41;;;6.24;100.00
41945;BME280;63122;52.424;13.458;2023-04-08T00:25:12;101417.63;;;6.22;100.00
41945;BME280;63122;52.424;13.458;2023-04-08T00:27:08;101420.16;;;6.24;100.00
41945;BME280;63122;52.424;13.458;2023-04-08T00:29:06;101423.81;;;6.21;100.00
41945;BME280;63122;52.424;13.458;2023-04-08T00:31:04;101416.09;;;6.19;100.00
41945;BME280;63122;52.424;13.458;2023-04-08T00:33:01;101421.31;;;6.19;100.00
41945;BME280;63122;52.424;13.458;2023-04-08T00:34:57;101427.09;;;6.25;100.00
41945;BME280;63122;52.424;13.458;2023-04-08T00:36:55;101428.13;;;6.22;100.00
41945;BME280;63122;52.424;13.458;2023-04-08T00:38:51;101426.13;;;6.26;100.00
41945;BME280;63122;52.424;13.458;2023-04-08T00:40:47;101426.13;;;6.26;100.00
41945;BME280;63122;52.424;13.458;2023-04-08T00:42:42;101428.75;;;6.26;100.00
41945;BME280;63122;52.424;13.458;2023-04-08T00:44:41;101425.84;;;6.30;100.00
41945;BME280;63122;52.424;13.458;2023-04-08T00:46:38;101428.63;;;6.27;100.00
41945;BME280;63122;52.424;13.458;2023-04-08T00:48:34;101425.28;;;6.25;100.00
41945;BME280;63122;52.424;13.458;2023-04-08T00:50:29;101420.78;;;6.27;100.00
41945;BME280;63122;52.424;13.458;2023-04-08T00:52:25;101423.59;;;6.24;100.00
41945;BME280;63122;52.424;13.458;2023-04-08T00:54:22;101425.41;;;6.24;100.00
41945;BME280;63122;52.424;13.458;2023-04-08T00:56:18;101424.56;;;6.23;100.00
41945;BME280;63122;52.424;13.458;2023-04-08T00:58:16;101419.44;;;6.22;100.00
41945;BME280;63122;52.424;13.458;2023-04-08T01:00:15;101417.84;;;6.19;100.00
41945;BME280;63122;52.424;13.458;2023-04-08T01:02:14;101415.97;;;6.21;100.00
41945;BME280;63122;52.424;13.458;2023-04-08T01:04:20;101415.13;;;6.21;100.00
41945;BME280;63122;52.424;13.458;2023-04-08T01:06:25;101425.63;;;6.21;100.00
41945;BME280;63122;52.424;13.458;2023-04-08T01:08:24;101427.16;;;6.23;100.00
41945;BME280;63122;52.424;13.458;2023-04-08T01:10:25;101430.75;;;6.22;100.00
41945;BME280;63122;52.424;13.458;2023-04-08T01:12:24;101433.25;;;6.24;100.00
41945;BME280;63122;52.424;13.458;2023-04-08T01:14:24;101425.63;;;6.21;100.00
41945;BME280;63122;52.424;13.458;2023-04-08T01:16:23;101428.31;;;6.19;100.00
41945;BME280;63122;52.424;13.458;2023-04-08T01:18:20;101431.81;;;6.19;100.00
41945;BME280;63122;52.424;13.458;2023-04-08T01:20:16;101437.13;;;6.18;100.00
41945;BME280;63122;52.424;13.458;2023-04-08T01:22:21;101433.47;;;6.21;100.00
41945;BME280;63122;52.424;13.458;2023-04-08T01:24:22;101440.59;;;6.18;100.00
41945;BME280;63122;52.424;13.458;2023-04-08T01:26:24;101437.03;;;6.19;100.00
41945;BME280;63122;52.424;13.458;2023-04-08T01:28:22;101440.28;;;6.23;100.00
41945;BME280;63122;52.424;13.458;2023-04-08T01:30:19;101443.63;;;6.25;100.00
41945;BME280;63122;52.424;13.458;2023-04-08T01:32:15;101440.28;;;6.23;100.00
41945;BME280;63122;52.424;13.458;2023-04-08T01:34:12;101436.91;;;6.21;100.00
41945;BME280;63122;52.424;13.458;2023-04-08T01:36:09;101441.34;;;6.21;100.00
41945;BME280;63122;52.424;13.458;2023-04-08T01:38:07;101440.47;;;6.20;100.00
41945;BME280;63122;52.424;13.458;2023-04-08T01:40:06;101437.88;;;6.20;100.00
41945;BME280;63122;52.424;13.458;2023-04-08T01:42:05;101439.53;;;6.21;100.00
41945;BME280;63122;52.424;13.458;2023-04-08T01:44:03;101434.31;;;6.21;100.00
41945;BME280;63122;52.424;13.458;2023-04-08T01:45:59;101441.13;;;6.24;100.00
41945;BME280;63122;52.424;13.458;2023-04-08T01:47:55;101444.69;;;6.23;100.00
41945;BME280;63122;52.424;13.458;2023-04-08T01:49:53;101446.47;;;6.22;100.00
41945;BME280;63122;52.424;13.458;2023-04-08T01:51:50;101447.31;;;6.23;100.00
41945;BME280;63122;52.424;13.458;2023-04-08T01:53:48;101444.69;;;6.23;100.00
41945;BME280;63122;52.424;13.458;2023-04-08T01:55:44;101447.31;;;6.23;100.00
41945;BME280;63122;52.424;13.458;2023-04-08T01:57:48;101443.63;;;6.25;100.00
41945;BME280;63122;52.424;13.458;2023-04-08T01:59:47;101443.75;;;6.24;100.00
41945;BME280;63122;52.424;13.458;2023-04-08T02:01:46;101437.66;;;6.23;100.00
41945;BME280;63122;52.424;13.458;2023-04-08T02:03:44;101440.47;;;6.20;100.00
41945;BME280;63122;52.424;13.458;2023-04-08T02:05:45;101444.78;;;6.21;100.00
41945;BME280;63122;52.424;13.458;2023-04-08T02:07:41;101440.47;;;6.20;100.00
41945;BME280;63122;52.424;13.458;2023-04-08T02:09:37;101448.34;;;6.20;100.00
41945;BME280;63122;52.424;13.458;2023-04-08T02:11:33;101449.00;;;6.24;100.00
41945;BME280;63122;52.424;13.458;2023-04-08T02:13:31;101449.06;;;6.22;100.00
41945;BME280;63122;52.424;13.458;2023-04-08T02:15:28;101457.59;;;6.26;100.00
41945;BME280;63122;52.424;13.458;2023-04-08T02:17:33;101453.16;;;6.26;100.00
41945;BME280;63122;52.424;13.458;2023-04-08T02:19:35;101454.22;;;6.24;100.00
41945;BME280;63122;52.424;13.458;2023-04-08T02:21:43;101456.72;;;6.25;100.00
41945;BME280;63122;52.424;13.458;2023-04-08T02:23:45;101459.47;;;6.24;100.00
41945;BME280;63122;52.424;13.458;2023-04-08T02:25:44;101454.09;;;6.25;100.00
41945;BME280;63122;52.424;13.458;2023-04-08T02:27:41;101457.47;;;6.27;100.00
41945;BME280;63122;52.424;13.458;2023-04-08T02:29:41;101456.63;;;6.27;100.00
41945;BME280;63122;52.424;13.458;2023-04-08T02:31:37;101460.19;;;6.26;100.00
41945;BME280;63122;52.424;13.458;2023-04-08T02:33:37;101474.53;;;6.20;100.00
41945;BME280;63122;52.424;13.458;2023-04-08T02:35:33;101470.03;;;6.22;100.00
41945;BME280;63122;52.424;13.458;2023-04-08T02:37:30;101468.16;;;6.24;100.00
41945;BME280;63122;52.424;13.458;2023-04-08T02:39:30;101472.34;;;6.27;100.00
41945;BME280;63122;52.424;13.458;2023-04-08T02:41:27;101467.22;;;6.25;100.00
41945;BME280;63122;52.424;13.458;2023-04-08T02:43:22;101475.06;;;6.25;100.00
41945;BME280;63122;52.424;13.458;2023-04-08T02:45:28;101476.88;;;6.25;100.00
41945;BME280;63122;52.424;13.458;2023-04-08T02:47:25;101477.91;;;6.22;100.00
41945;BME280;63122;52.424;13.458;2023-04-08T02:49:22;101488.72;;;6.17;100.00
41945;BME280;63122;52.424;13.458;2023-04-08T02:51:17;101481.16;;;6.13;100.00
41945;BME280;63122;52.424;13.458;2023-04-08T02:53:13;101480.72;;;6.19;100.00
41945;BME280;63122;52.424;13.458;2023-04-08T02:55:08;101482.72;;;6.15;100.00
41945;BME280;63122;52.424;13.458;2023-04-08T02:57:04;101483.97;;;6.10;100.00
41945;BME280;63122;52.424;13.458;2023-04-08T02:58:59;101489.81;;;6.13;100.00
41945;BME280;63122;52.424;13.458;2023-04-08T03:00:58;101481.22;;;6.11;100.00
41945;BME280;63122;52.424;13.458;2023-04-08T03:02:53;101482.91;;;6.12;100.00
41945;BME280;63122;52.424;13.458;2023-04-08T03:04:49;101486.47;;;6.11;100.00
41945;BME280;63122;52.424;13.458;2023-04-08T03:06:45;101475.16;;;6.11;100.00
41945;BME280;63122;52.424;13.458;2023-04-08T03:08:41;101481.22;;;6.11;100.00
41945;BME280;63122;52.424;13.458;2023-04-08T03:10:36;101486.31;;;6.14;100.00
41945;BME280;63122;52.424;13.458;2023-04-08T03:12:31;101494.88;;;6.16;100.00
41945;BME280;63122;52.424;13.458;2023-04-08T03:14:27;101485.97;;;6.19;100.00
41945;BME280;63122;52.424;13.458;2023-04-08T03:16:25;101490.06;;;6.23;100.00
41945;BME280;63122;52.424;13.458;2023-04-08T03:18:20;101495.28;;;6.23;100.00
41945;BME280;63122;52.424;13.458;2023-04-08T03:20:16;101491.94;;;6.21;100.00
41945;BME280;63122;52.424;13.458;2023-04-08T03:22:11;101493.75;;;6.21;100.00
41945;BME280;63122;52.424;13.458;2023-04-08T03:24:08;101505.03;;;6.21;100.00
41945;BME280;63122;52.424;13.458;2023-04-08T03:26:03;101503.81;;;6.27;100.00
41945;BME280;63122;52.424;13.458;2023-04-08T03:27:58;101508.19;;;6.26;100.00
41945;BME280;63122;52.424;13.458;2023-04-08T03:29:54;101509.88;;;6.27;100.00
41945;BME280;63122;52.424;13.458;2023-04-08T03:31:53;101512.81;;;6.23;100.00
41945;BME280;63122;52.424;13.458;2023-04-08T03:33:48;101509.34;;;6.22;100.00
41945;BME280;63122;52.424;13.458;2023-04-08T03:35:43;101509.56;;;6.19;100.00
41945;BME280;63122;52.424;13.458;2023-04-08T03:37:39;101511.13;;;6.22;100.00
41945;BME280;63122;52.424;13.458;2023-04-08T03:39:35;101507.56;;;6.23;100.00
41945;BME280;63122;52.424;13.458;2023-04-08T03:41:30;101505.78;;;6.23;100.00
41945;BME280;63122;52.424;13.458;2023-04-08T03:43:26;101512.69;;;6.24;100.00
41945;BME280;63122;52.424;13.458;2023-04-08T03:45:21;101505.78;;;6.23;100.00
41945;BME280;63122;52.424;13.458;2023-04-08T03:47:19;101507.66;;;6.21;100.00
41945;BME280;63122;52.424;13.458;2023-04-08T03:49:15;101513.56;;;6.25;100.00
41945;BME280;63122;52.424;13.458;2023-04-08T03:51:10;101517.00;;;6.25;100.00
41945;BME280;63122;52.424;13.458;2023-04-08T03:53:12;101521.50;;;6.23;100.00
41945;BME280;63122;52.424;13.458;2023-04-08T03:55:28;101520.75;;;6.21;100.00
41945;BME280;63122;52.424;13.458;2023-04-08T03:57:37;101526.84;;;6.22;100.00
41945;BME280;63122;52.424;13.458;2023-04-08T03:59:50;101533.03;;;6.21;100.00
41945;BME280;63122;52.424;13.458;2023-04-08T04:02:07;101532.41;;;6.17;100.00
41945;BME280;63122;52.424;13.458;2023-04-08T04:08:38;101532.91;;;6.09;100.00
41945;BME280;63122;52.424;13.458;2023-04-08T04:10:51;101537.19;;;6.10;100.00
41945;BME280;63122;52.424;13.458;2023-04-08T04:12:49;101535.44;;;6.11;100.00
41945;BME280;63122;52.424;13.458;2023-04-08T04:14:44;101535.44;;;6.11;100.00
41945;BME280;63122;52.424;13.458;2023-04-08T04:16:40;101538.69;;;6.14;100.00
41945;BME280;63122;52.424;13.458;2023-04-08T04:18:41;101529.91;;;6.15;100.00
41945;BME280;63122;52.424;13.458;2023-04-08T04:20:41;101535.88;;;6.17;100.00
41945;BME280;63122;52.424;13.458;2023-04-08T04:22:39;101542.66;;;6.20;100.00
41945;BME280;63122;52.424;13.458;2023-04-08T04:24:46;101547.19;;;6.18;100.00
41945;BME280;63122;52.424;13.458;2023-04-08T04:26:47;101547.28;;;6.16;100.00
41945;BME280;63122;52.424;13.458;2023-04-08T04:28:48;101556.09;;;6.15;100.00
41945;BME280;63122;52.424;13.458;2023-04-08T04:30:47;101553.56;;;6.14;100.00
41945;BME280;63122;52.424;13.458;2023-04-08T04:32:53;101557.84;;;6.15;100.00
41945;BME280;63122;52.424;13.458;2023-04-08T04:34:52;101563.94;;;6.15;100.00
41945;BME280;63122;52.424;13.458;2023-04-08T04:36:54;101553.34;;;6.17;100.00
41945;BME280;63122;52.424;13.458;2023-04-08T04:38:56;101566.38;;;6.18;100.00
41945;BME280;63122;52.424;13.458;2023-04-08T04:41:04;101567.31;;;6.17;100.00
41945;BME280;63122;52.424;13.458;2023-04-08T04:43:04;101563.19;;;6.13;100.00
41945;BME280;63122;52.424;13.458;2023-04-08T04:45:07;101563.84;;;6.17;100.00
41945;BME280;63122;52.424;13.458;2023-04-08T04:47:09;101572.34;;;6.21;100.00
41945;BME280;63122;52.424;13.458;2023-04-08T04:49:11;101568.66;;;6.23;100.00
41945;BME280;63122;52.424;13.458;2023-04-08T04:51:14;101573.09;;;6.23;100.00
41945;BME280;63122;52.424;13.458;2023-04-08T04:53:15;101577.19;;;6.27;100.00
41945;BME280;63122;52.424;13.458;2023-04-08T04:55:17;101577.25;;;6.25;100.00
41945;BME280;63122;52.424;13.458;2023-04-08T04:57:23;101573.69;;;6.26;100.00
41945;BME280;63122;52.424;13.458;2023-04-08T04:59:24;101581.69;;;6.25;100.00
41945;BME280;63122;52.424;13.458;2023-04-08T05:01:26;101584.19;;;6.26;100.00
41945;BME280;63122;52.424;13.458;2023-04-08T05:03:26;101577.38;;;6.24;100.00
41945;BME280;63122;52.424;13.458;2023-04-08T05:05:27;101579.25;;;6.22;100.00
41945;BME280;63122;52.424;13.458;2023-04-08T05:07:26;101586.19;;;6.23;100.00
41945;BME280;63122;52.424;13.458;2023-04-08T05:09:29;101582.91;;;6.19;100.00
41945;BME280;63122;52.424;13.458;2023-04-08T05:11:30;101583.84;;;6.18;100.00
41945;BME280;63122;52.424;13.458;2023-04-08T05:13:35;101588.91;;;6.21;100.00
41945;BME280;63122;52.424;13.458;2023-04-08T05:15:34;101591.31;;;6.24;100.00
41945;BME280;63122;52.424;13.458;2023-04-08T05:17:34;101596.47;;;6.26;100.00
41945;BME280;63122;52.424;13.458;2023-04-08T05:19:35;101591.09;;;6.27;100.00
41945;BME280;63122;52.424;13.458;2023-04-08T05:21:35;101592.81;;;6.28;100.00
41945;BME280;63122;52.424;13.458;2023-04-08T05:23:35;101596.06;;;6.32;100.00
41945;BME280;63122;52.424;13.458;2023-04-08T05:25:31;101600.47;;;6.31;100.00
41945;BME280;63122;52.424;13.458;2023-04-08T05:27:26;101599.53;;;6.32;100.00
41945;BME280;63122;52.424;13.458;2023-04-08T05:29:25;101599.63;;;6.31;100.00
41945;BME280;63122;52.424;13.458;2023-04-08T05:31:21;101603.81;;;6.33;100.00
41945;BME280;63122;52.424;13.458;2023-04-08T05:33:17;101605.91;;;6.28;100.00
41945;BME280;63122;52.424;13.458;2023-04-08T05:35:12;101606.81;;;6.27;100.00
41945;BME280;63122;52.424;13.458;2023-04-08T05:37:08;101605.91;;;6.28;100.00
41945;BME280;63122;52.424;13.458;2023-04-08T05:39:03;101614.50;;;6.30;100.00
41945;BME280;63122;52.424;13.458;2023-04-08T05:40:58;101623.31;;;6.29;100.00
41945;BME280;63122;52.424;13.458;2023-04-08T05:42:54;101628.56;;;6.29;100.00
41945;BME280;63122;52.424;13.458;2023-04-08T05:44:52;101626.88;;;6.28;100.00
41945;BME280;63122;52.424;13.458;2023-04-08T05:46:47;101630.31;;;6.29;100.00
41945;BME280;63122;52.424;13.458;2023-04-08T05:48:43;101632.75;;;6.32;100.00
41945;BME280;63122;52.424;13.458;2023-04-08T05:50:38;101633.59;;;6.32;100.00
41945;BME280;63122;52.424;13.458;2023-04-08T05:52:34;101635.03;;;6.24;100.00
41945;BME280;63122;52.424;13.458;2023-04-08T05:54:29;101633.03;;;6.27;100.00
41945;BME280;63122;52.424;13.458;2023-04-08T05:56:25;101630.25;;;6.30;100.00
41945;BME280;63122;52.424;13.458;2023-04-08T05:58:20;101632.84;;;6.30;100.00
41945;BME280;63122;52.424;13.458;2023-04-08T06:00:18;101633.16;;;6.26;100.00
41945;BME280;63122;52.424;13.458;2023-04-08T06:02:14;101639.03;;;6.29;100.00
41945;BME280;63122;52.424;13.458;2023-04-08T06:04:10;101636.31;;;6.31;100.00
41945;BME280;63122;52.424;13.458;2023-04-08T06:06:08;101641.25;;;6.36;100.00
41945;BME280;63122;52.424;13.458;2023-04-08T06:08:05;101642.81;;;6.38;100.00
41945;BME280;63122;52.424;13.458;2023-04-08T06:10:00;101643.56;;;6.40;100.00
41945;BME280;63122;52.424;13.458;2023-04-08T06:11:56;101643.38;;;6.43;100.00
41945;BME280;63122;52.424;13.458;2023-04-08T06:13:51;101648.50;;;6.45;100.00
41945;BME280;63122;52.424;13.458;2023-04-08T06:15:49;101644.88;;;6.47;100.00
41945;BME280;63122;52.424;13.458;2023-04-08T06:17:45;101650.84;;;6.50;100.00
41945;BME280;63122;52.424;13.458;2023-04-08T06:19:40;101655.97;;;6.51;100.00
41945;BME280;63122;52.424;13.458;2023-04-08T06:21:35;101655.03;;;6.52;100.00
41945;BME280;63122;52.424;13.458;2023-04-08T06:23:31;101650.00;;;6.49;100.00
41945;BME280;63122;52.424;13.458;2023-04-08T06:25:26;101649.69;;;6.54;100.00
41945;BME280;63122;52.424;13.458;2023-04-08T06:27:22;101657.44;;;6.55;100.00
41945;BME280;63122;52.424;13.458;2023-04-08T06:29:17;101661.94;;;6.53;100.00
41945;BME280;63122;52.424;13.458;2023-04-08T06:31:15;101658.78;;;6.48;100.00
41945;BME280;63122;52.424;13.458;2023-04-08T06:33:11;101659.53;;;6.50;100.00
41945;BME280;63122;52.424;13.458;2023-04-08T06:35:07;101663.00;;;6.51;100.00
41945;BME280;63122;52.424;13.458;2023-04-08T06:37:02;101668.69;;;6.57;100.00
41945;BME280;63122;52.424;13.458;2023-04-08T06:38:58;101674.75;;;6.58;100.00
41945;BME280;63122;52.424;13.458;2023-04-08T06:40:53;101671.00;;;6.62;100.00
41945;BME280;63122;52.424;13.458;2023-04-08T06:42:49;101680.53;;;6.63;100.00
41945;BME280;63122;52.424;13.458;2023-04-08T06:44:45;101677.19;;;6.61;100.00
41945;BME280;63122;52.424;13.458;2023-04-08T06:46:43;101682.97;;;6.66;100.00
41945;BME280;63122;52.424;13.458;2023-04-08T06:48:38;101691.38;;;6.71;100.00
41945;BME280;63122;52.424;13.458;2023-04-08T06:50:34;101684.13;;;6.75;100.00
41945;BME280;63122;52.424;13.458;2023-04-08T06:52:29;101695.47;;;6.75;100.00
41945;BME280;63122;52.424;13.458;2023-04-08T06:54:25;101695.88;;;6.69;100.00
41945;BME280;63122;52.424;13.458;2023-04-08T06:56:20;101693.38;;;6.68;100.00
41945;BME280;63122;52.424;13.458;2023-04-08T06:58:17;101707.00;;;6.73;100.00
41945;BME280;63122;52.424;13.458;2023-04-08T07:00:13;101702.22;;;6.80;100.00
41945;BME280;63122;52.424;13.458;2023-04-08T07:02:11;101707.91;;;6.86;100.00
41945;BME280;63122;52.424;13.458;2023-04-08T07:04:07;101707.69;;;6.89;100.00
41945;BME280;63122;52.424;13.458;2023-04-08T07:06:03;101705.69;;;6.93;100.00
41945;BME280;63122;52.424;13.458;2023-04-08T07:07:58;101702.75;;;6.98;100.00
41945;BME280;63122;52.424;13.458;2023-04-08T07:09:53;101706.97;;;7.00;100.00
41945;BME280;63122;52.424;13.458;2023-04-08T07:11:48;101713.28;;;7.11;100.00
41945;BME280;63122;52.424;13.458;2023-04-08T07:13:44;101713.19;;;7.12;100.00
41945;BME280;63122;52.424;13.458;2023-04-08T07:15:40;101713.72;;;7.17;100.00
41945;BME280;63122;52.424;13.458;2023-04-08T07:17:38;101716.34;;;7.17;100.00
41945;BME280;63122;52.424;13.458;2023-04-08T07:19:33;101716.34;;;7.17;100.00
41945;BME280;63122;52.424;13.458;2023-04-08T07:21:29;101718.75;;;7.20;100.00
41945;BME280;63122;52.424;13.458;2023-04-08T07:23:24;101718.22;;;7.15;100.00
41945;BME280;63122;52.424;13.458;2023-04-08T07:25:19;101721.38;;;7.20;100.00
41945;BME280;63122;52.424;13.458;2023-04-08T07:27:15;101728.81;;;7.27;100.00
41945;BME280;63122;52.424;13.458;2023-04-08T07:29:10;101720.00;;;7.28;100.00
41945;BME280;63122;52.424;13.458;2023-04-08T07:31:13;101719.91;;;7.29;100.00
41945;BME280;63122;52.424;13.458;2023-04-08T07:33:11;101718.44;;;7.38;100.00
41945;BME280;63122;52.424;13.458;2023-04-08T07:35:07;101723.38;;;7.43;100.00
41945;BME280;63122;52.424;13.458;2023-04-08T07:37:02;101733.16;;;7.54;100.00
41945;BME280;63122;52.424;13.458;2023-04-08T07:38:57;101732.84;;;7.58;100.00
41945;BME280;63122;52.424;13.458;2023-04-08T07:40:53;101737.97;;;7.60;100.00
41945;BME280;63122;52.424;13.458;2023-04-08T07:42:48;101736.81;;;7.64;100.00
41945;BME280;63122;52.424;13.458;2023-04-08T07:44:44;101737.44;;;7.68;100.00
41945;BME280;63122;52.424;13.458;2023-04-08T07:46:39;101736.59;;;7.67;100.00
41945;BME280;63122;52.424;13.458;2023-04-08T07:48:39;101738.38;;;7.67;100.00
41945;BME280;63122;52.424;13.458;2023-04-08T07:50:35;101737.34;;;7.69;100.00
41945;BME280;63122;52.424;13.458;2023-04-08T07:52:50;101736.47;;;7.82;100.00
41945;BME280;63122;52.424;13.458;2023-04-08T07:54:45;101745.50;;;8.03;100.00
41945;BME280;63122;52.424;13.458;2023-04-08T07:56:41;101738.31;;;8.18;100.00
41945;BME280;63122;52.424;13.458;2023-04-08T07:58:36;101743.63;;;8.30;100.00
41945;BME280;63122;52.424;13.458;2023-04-08T08:00:32;101735.50;;;8.33;100.00
41945;BME280;63122;52.424;13.458;2023-04-08T08:02:27;101742.44;;;8.34;100.00
41945;BME280;63122;52.424;13.458;2023-04-08T08:04:25;101747.72;;;8.34;100.00
41945;BME280;63122;52.424;13.458;2023-04-08T08:06:21;101747.59;;;8.35;100.00
41945;BME280;63122;52.424;13.458;2023-04-08T08:08:19;101751.59;;;8.41;100.00
41945;BME280;63122;52.424;13.458;2023-04-08T08:10:14;101739.41;;;8.40;100.00
41945;BME280;63122;52.424;13.458;2023-04-08T08:12:10;101754.81;;;8.45;100.00
41945;BME280;63122;52.424;13.458;2023-04-08T08:14:06;101737.88;;;8.49;100.00
41945;BME280;63122;52.424;13.458;2023-04-08T08:16:03;101747.38;;;8.52;100.00
41945;BME280;63122;52.424;13.458;2023-04-08T08:18:00;101750.28;;;8.47;100.00
41945;BME280;63122;52.424;13.458;2023-04-08T08:19:58;101749.56;;;8.45;100.00
41945;BME280;63122;52.424;13.458;2023-04-08T08:21:55;101756.50;;;8.46;100.00
41945;BME280;63122;52.424;13.458;2023-04-08T08:23:51;101750.41;;;8.45;100.00
41945;BME280;63122;52.424;13.458;2023-04-08T08:25:46;101751.97;;;8.48;100.00
41945;BME280;63122;52.424;13.458;2023-04-08T08:27:41;101757.97;;;8.50;100.00
41945;BME280;63122;52.424;13.458;2023-04-08T08:29:36;101763.44;;;8.47;100.00
41945;BME280;63122;52.424;13.458;2023-04-08T08:31:32;101758.09;;;8.48;100.00
41945;BME280;63122;52.424;13.458;2023-04-08T08:33:27;101770.38;;;8.48;100.00
41945;BME280;63122;52.424;13.458;2023-04-08T08:35:25;101768.59;;;8.48;100.00
41945;BME280;63122;52.424;13.458;2023-04-08T08:37:20;101767.69;;;8.49;100.00
41945;BME280;63122;52.424;13.458;2023-04-08T08:39:16;101764.09;;;8.50;100.00
41945;BME280;63122;52.424;13.458;2023-04-08T08:41:11;101762.50;;;8.48;100.00
41945;BME280;63122;52.424;13.458;2023-04-08T08:43:08;101777.53;;;8.46;100.00
41945;BME280;63122;52.424;13.458;2023-04-08T08:45:04;101776.50;;;8.48;100.00
41945;BME280;63122;52.424;13.458;2023-04-08T08:47:00;101773.88;;;8.48;100.00
41945;BME280;63122;52.424;13.458;2023-04-08T08:48:56;101779.94;;;8.49;100.00
41945;BME280;63122;52.424;13.458;2023-04-08T08:50:54;101772.28;;;8.46;100.00
41945;BME280;63122;52.424;13.458;2023-04-08T08:52:49;101778.19;;;8.49;100.00
41945;BME280;63122;52.424;13.458;2023-04-08T08:54:46;101779.94;;;8.49;100.00
41945;BME280;63122;52.424;13.458;2023-04-08T08:56:41;101781.03;;;8.46;100.00
41945;BME280;63122;52.424;13.458;2023-04-08T08:58:37;101785.13;;;8.50;100.00
41945;BME280;63122;52.424;13.458;2023-04-08T09:00:34;101786.72;;;8.53;100.00
41945;BME280;63122;52.424;13.458;2023-04-08T09:02:31;101794.16;;;8.59;100.00
41945;BME280;63122;52.424;13.458;2023-04-08T09:04:27;101791.19;;;8.64;100.00
41945;BME280;63122;52.424;13.458;2023-04-08T09:06:25;101785.59;;;8.69;100.00
41945;BME280;63122;52.424;13.458;2023-04-08T09:08:25;101795.06;;;8.71;100.00
41945;BME280;63122;52.424;13.458;2023-04-08T09:10:27;101796.63;;;8.74;100.00
41945;BME280;63122;52.424;13.458;2023-04-08T09:12:23;101794.94;;;8.73;100.00
41945;BME280;63122;52.424;13.458;2023-04-08T09:14:20;101802.09;;;8.71;100.00
41945;BME280;63122;52.424;13.458;2023-04-08T09:16:16;101807.13;;;8.74;100.00
41945;BME280;63122;52.424;13.458;2023-04-08T09:18:20;101804.97;;;8.68;100.00
41945;BME280;63122;52.424;13.458;2023-04-08T09:20:16;101810.44;;;8.64;100.00
41945;BME280;63122;52.424;13.458;2023-04-08T09:22:14;101812.22;;;8.64;100.00
41945;BME280;63122;52.424;13.458;2023-04-08T09:24:26;101810.22;;;8.68;100.00
41945;BME280;63122;52.424;13.458;2023-04-08T09:26:23;101810.13;;;8.69;100.00
41945;BME280;63122;52.424;13.458;2023-04-08T09:28:19;101817.78;;;8.72;100.00
41945;BME280;63122;52.424;13.458;2023-04-08T09:30:14;101821.03;;;8.76;100.00
41945;BME280;63122;52.424;13.458;2023-04-08T09:32:10;101819.75;;;8.82;100.00
41945;BME280;63122;52.424;13.458;2023-04-08T09:34:09;101820.47;;;8.84;100.00
41945;BME280;63122;52.424;13.458;2023-04-08T09:36:06;101816.78;;;8.86;100.00
41945;BME280;63122;52.424;13.458;2023-04-08T09:38:04;101815.47;;;8.92;100.00
41945;BME280;63122;52.424;13.458;2023-04-08T09:40:00;101816.34;;;8.92;100.00
41945;BME280;63122;52.424;13.458;2023-04-08T09:41:57;101813.59;;;8.94;100.00
41945;BME280;63122;52.424;13.458;2023-04-08T09:43:54;101816.34;;;8.92;100.00
41945;BME280;63122;52.424;13.458;2023-04-08T09:45:51;101828.53;;;8.93;100.00
41945;BME280;63122;52.424;13.458;2023-04-08T09:47:54;101824.13;;;8.94;100.00
41945;BME280;63122;52.424;13.458;2023-04-08T09:49:54;101822.09;;;8.98;100.00
41945;BME280;63122;52.424;13.458;2023-04-08T09:51:53;101825.59;;;8.98;100.00
41945;BME280;63122;52.424;13.458;2023-04-08T09:54:00;101819.69;;;8.95;100.00
41945;BME280;63122;52.424;13.458;2023-04-08T09:55:57;101816.09;;;8.96;100.00
41945;BME280;63122;52.424;13.458;2023-04-08T09:57:57;101816.72;;;8.99;100.00
41945;BME280;63122;52.424;13.458;2023-04-08T10:00:04;101817.22;;;9.04;100.00
41945;BME280;63122;52.424;13.458;2023-04-08T10:02:06;101813.41;;;9.08;100.00
41945;BME280;63122;52.424;13.458;2023-04-08T10:04:04;101817.84;;;9.08;100.00
41945;BME280;63122;52.424;13.458;2023-04-08T10:06:02;101821.03;;;9.00;100.00
41945;BME280;63122;52.424;13.458;2023-04-08T10:07:59;101817.31;;;9.03;100.00
41945;BME280;63122;52.424;13.458;2023-04-08T10:09:57;101822.16;;;9.09;100.00
41945;BME280;63122;52.424;13.458;2023-04-08T10:11:53;101816.75;;;9.11;100.00
41945;BME280;63122;52.424;13.458;2023-04-08T10:13:50;101822.16;;;9.09;100.00
41945;BME280;63122;52.424;13.458;2023-04-08T10:15:45;101818.69;;;9.08;100.00